Terminal Aerodrome Forecast
Issued by NWS

Home | Current Version | Previous Version | Text Only | Print | Product List | Glossary On
Versions: 1 2 3 4 5 6 7 8 9 10 11 12 13 14 15 16 17 18 19 20
000
FTUS46 KHNX 302341
TAFVIS
TAF
KVIS 302341Z 3100/3124 VRB03KT 4SM HZ SCT025
     FM310400 00000KT 1SM BR SCT003
     FM310600 00000KT 1/4SM FG OVC001
     FM311900 00000KT 1SM BR OVC004
     FM312100 VRB03KT 3SM HZ SCT020=

USA.gov is the U.S. government's official web portal to all federal, state and local government web resources and services.